sensor_id;sensor_type;location;lat;lon;timestamp;P1;durP1;ratioP1;P2;durP2;ratioP2
65613;SDS011;52283;49.292;10.572;2023-04-03T00:00:36;3.60;;;1.20;;
65613;SDS011;52283;49.292;10.572;2023-04-03T00:03:03;2.22;;;1.02;;
65613;SDS011;52283;49.292;10.572;2023-04-03T00:05:29;8.18;;;1.10;;
65613;SDS011;52283;49.292;10.572;2023-04-03T00:07:56;2.63;;;0.88;;
65613;SDS011;52283;49.292;10.572;2023-04-03T00:10:22;1.75;;;1.17;;
65613;SDS011;52283;49.292;10.572;2023-04-03T00:12:50;2.20;;;1.60;;
65613;SDS011;52283;49.292;10.572;2023-04-03T00:15:17;1.33;;;1.20;;
65613;SDS011;52283;49.292;10.572;2023-04-03T00:17:43;5.80;;;1.50;;
65613;SDS011;52283;49.292;10.572;2023-04-03T00:20:10;2.38;;;1.42;;
65613;SDS011;52283;49.292;10.572;2023-04-03T00:22:37;5.45;;;1.63;;
65613;SDS011;52283;49.292;10.572;2023-04-03T00:25:04;2.50;;;1.40;;
65613;SDS011;52283;49.292;10.572;2023-04-03T00:27:30;0.90;;;0.80;;
65613;SDS011;52283;49.292;10.572;2023-04-03T00:29:58;1.10;;;0.98;;
65613;SDS011;52283;49.292;10.572;2023-04-03T00:32:25;1.13;;;1.05;;
65613;SDS011;52283;49.292;10.572;2023-04-03T00:34:51;1.45;;;1.00;;
65613;SDS011;52283;49.292;10.572;2023-04-03T00:37:18;3.33;;;0.90;;
65613;SDS011;52283;49.292;10.572;2023-04-03T00:39:44;3.13;;;1.27;;
65613;SDS011;52283;49.292;10.572;2023-04-03T00:42:11;1.83;;;1.40;;
65613;SDS011;52283;49.292;10.572;2023-04-03T00:47:42;1.67;;;0.98;;
65613;SDS011;52283;49.292;10.572;2023-04-03T00:50:09;1.08;;;1.02;;
65613;SDS011;52283;49.292;10.572;2023-04-03T00:52:36;2.05;;;1.10;;
65613;SDS011;52283;49.292;10.572;2023-04-03T00:55:06;2.90;;;1.25;;
65613;SDS011;52283;49.292;10.572;2023-04-03T01:00:03;1.70;;;0.93;;
65613;SDS011;52283;49.292;10.572;2023-04-03T01:02:34;1.33;;;1.08;;
65613;SDS011;52283;49.292;10.572;2023-04-03T01:05:02;1.50;;;0.93;;
65613;SDS011;52283;49.292;10.572;2023-04-03T01:07:30;2.28;;;1.50;;
65613;SDS011;52283;49.292;10.572;2023-04-03T01:09:59;1.17;;;1.00;;
65613;SDS011;52283;49.292;10.572;2023-04-03T01:12:27;3.10;;;1.10;;
65613;SDS011;52283;49.292;10.572;2023-04-03T01:14:55;2.03;;;0.90;;
65613;SDS011;52283;49.292;10.572;2023-04-03T01:17:28;3.50;;;1.15;;
65613;SDS011;52283;49.292;10.572;2023-04-03T01:20:02;1.27;;;1.17;;
65613;SDS011;52283;49.292;10.572;2023-04-03T01:23:04;1.08;;;0.98;;
65613;SDS011;52283;49.292;10.572;2023-04-03T01:25:38;1.20;;;1.10;;
65613;SDS011;52283;49.292;10.572;2023-04-03T01:28:08;1.98;;;1.20;;
65613;SDS011;52283;49.292;10.572;2023-04-03T01:30:38;2.30;;;1.45;;
65613;SDS011;52283;49.292;10.572;2023-04-03T01:33:13;3.80;;;1.17;;
65613;SDS011;52283;49.292;10.572;2023-04-03T01:35:39;6.28;;;1.65;;
65613;SDS011;52283;49.292;10.572;2023-04-03T01:38:06;2.20;;;1.20;;
65613;SDS011;52283;49.292;10.572;2023-04-03T01:40:32;1.90;;;1.10;;
65613;SDS011;52283;49.292;10.572;2023-04-03T01:42:59;2.05;;;1.50;;
65613;SDS011;52283;49.292;10.572;2023-04-03T01:45:25;1.95;;;1.45;;
65613;SDS011;52283;49.292;10.572;2023-04-03T01:47:51;2.97;;;1.02;;
65613;SDS011;52283;49.292;10.572;2023-04-03T01:50:19;4.05;;;1.20;;
65613;SDS011;52283;49.292;10.572;2023-04-03T01:52:46;1.42;;;1.25;;
65613;SDS011;52283;49.292;10.572;2023-04-03T01:55:12;3.72;;;1.20;;
65613;SDS011;52283;49.292;10.572;2023-04-03T01:57:40;1.35;;;1.15;;
65613;SDS011;52283;49.292;10.572;2023-04-03T02:00:07;5.35;;;2.05;;
65613;SDS011;52283;49.292;10.572;2023-04-03T02:02:34;1.20;;;1.10;;
65613;SDS011;52283;49.292;10.572;2023-04-03T02:05:00;1.85;;;1.10;;
65613;SDS011;52283;49.292;10.572;2023-04-03T02:07:28;2.00;;;1.13;;
65613;SDS011;52283;49.292;10.572;2023-04-03T02:09:55;1.00;;;0.90;;
65613;SDS011;52283;49.292;10.572;2023-04-03T02:12:21;1.65;;;1.27;;
65613;SDS011;52283;49.292;10.572;2023-04-03T02:14:48;1.58;;;1.45;;
65613;SDS011;52283;49.292;10.572;2023-04-03T02:17:14;3.15;;;1.67;;
65613;SDS011;52283;49.292;10.572;2023-04-03T02:19:40;3.35;;;1.23;;
65613;SDS011;52283;49.292;10.572;2023-04-03T02:22:07;1.15;;;1.02;;
65613;SDS011;52283;49.292;10.572;2023-04-03T02:24:35;1.88;;;1.17;;
65613;SDS011;52283;49.292;10.572;2023-04-03T02:27:04;3.05;;;1.33;;
65613;SDS011;52283;49.292;10.572;2023-04-03T02:29:30;1.30;;;1.13;;
65613;SDS011;52283;49.292;10.572;2023-04-03T02:31:56;3.40;;;1.60;;
65613;SDS011;52283;49.292;10.572;2023-04-03T02:34:23;2.13;;;1.25;;
65613;SDS011;52283;49.292;10.572;2023-04-03T02:36:49;1.50;;;1.33;;
65613;SDS011;52283;49.292;10.572;2023-04-03T02:39:16;3.67;;;1.40;;
65613;SDS011;52283;49.292;10.572;2023-04-03T02:41:44;2.08;;;1.48;;
65613;SDS011;52283;49.292;10.572;2023-04-03T02:44:10;1.42;;;1.20;;
65613;SDS011;52283;49.292;10.572;2023-04-03T02:46:37;3.33;;;1.13;;
65613;SDS011;52283;49.292;10.572;2023-04-03T02:49:04;3.28;;;1.73;;
65613;SDS011;52283;49.292;10.572;2023-04-03T02:51:31;1.52;;;1.10;;
65613;SDS011;52283;49.292;10.572;2023-04-03T02:53:57;3.40;;;1.30;;
65613;SDS011;52283;49.292;10.572;2023-04-03T02:56:24;1.02;;;1.00;;
65613;SDS011;52283;49.292;10.572;2023-04-03T02:58:53;3.47;;;1.40;;
65613;SDS011;52283;49.292;10.572;2023-04-03T03:01:22;1.55;;;1.15;;
65613;SDS011;52283;49.292;10.572;2023-04-03T03:03:49;1.30;;;1.20;;
65613;SDS011;52283;49.292;10.572;2023-04-03T03:06:16;1.60;;;1.17;;
65613;SDS011;52283;49.292;10.572;2023-04-03T03:08:43;3.42;;;1.40;;
65613;SDS011;52283;49.292;10.572;2023-04-03T03:11:10;1.13;;;0.93;;
65613;SDS011;52283;49.292;10.572;2023-04-03T03:13:37;2.03;;;1.13;;
65613;SDS011;52283;49.292;10.572;2023-04-03T03:16:05;2.20;;;1.27;;
65613;SDS011;52283;49.292;10.572;2023-04-03T03:18:32;2.10;;;1.00;;
65613;SDS011;52283;49.292;10.572;2023-04-03T03:20:59;3.95;;;1.60;;
65613;SDS011;52283;49.292;10.572;2023-04-03T03:23:27;1.92;;;1.30;;
65613;SDS011;52283;49.292;10.572;2023-04-03T03:25:55;1.52;;;0.93;;
65613;SDS011;52283;49.292;10.572;2023-04-03T03:28:22;2.42;;;1.20;;
65613;SDS011;52283;49.292;10.572;2023-04-03T03:30:49;1.27;;;0.88;;
65613;SDS011;52283;49.292;10.572;2023-04-03T03:33:16;3.25;;;1.20;;
65613;SDS011;52283;49.292;10.572;2023-04-03T03:35:43;6.10;;;1.17;;
65613;SDS011;52283;49.292;10.572;2023-04-03T03:38:10;3.10;;;1.05;;
65613;SDS011;52283;49.292;10.572;2023-04-03T03:40:36;2.30;;;1.00;;
65613;SDS011;52283;49.292;10.572;2023-04-03T03:43:03;2.75;;;1.45;;
65613;SDS011;52283;49.292;10.572;2023-04-03T03:45:30;3.53;;;1.23;;
65613;SDS011;52283;49.292;10.572;2023-04-03T03:47:56;3.00;;;1.30;;
65613;SDS011;52283;49.292;10.572;2023-04-03T03:50:24;3.47;;;1.27;;
65613;SDS011;52283;49.292;10.572;2023-04-03T03:52:51;1.58;;;1.25;;
65613;SDS011;52283;49.292;10.572;2023-04-03T03:55:17;2.28;;;1.10;;
65613;SDS011;52283;49.292;10.572;2023-04-03T03:57:44;2.47;;;1.20;;
65613;SDS011;52283;49.292;10.572;2023-04-03T04:00:10;2.13;;;1.20;;
65613;SDS011;52283;49.292;10.572;2023-04-03T04:02:37;2.67;;;1.30;;
65613;SDS011;52283;49.292;10.572;2023-04-03T04:05:04;1.90;;;1.38;;
65613;SDS011;52283;49.292;10.572;2023-04-03T04:07:32;4.47;;;1.48;;
65613;SDS011;52283;49.292;10.572;2023-04-03T04:09:58;3.90;;;1.27;;
65613;SDS011;52283;49.292;10.572;2023-04-03T04:12:25;4.03;;;1.30;;
65613;SDS011;52283;49.292;10.572;2023-04-03T04:14:52;2.55;;;1.20;;
65613;SDS011;52283;49.292;10.572;2023-04-03T04:17:18;2.05;;;1.77;;
65613;SDS011;52283;49.292;10.572;2023-04-03T04:19:45;3.67;;;1.55;;
65613;SDS011;52283;49.292;10.572;2023-04-03T04:22:11;2.28;;;1.65;;
65613;SDS011;52283;49.292;10.572;2023-04-03T04:24:39;4.13;;;1.77;;
65613;SDS011;52283;49.292;10.572;2023-04-03T04:27:05;3.58;;;2.10;;
65613;SDS011;52283;49.292;10.572;2023-04-03T04:29:32;3.25;;;1.42;;
65613;SDS011;52283;49.292;10.572;2023-04-03T04:32:00;2.95;;;1.67;;
65613;SDS011;52283;49.292;10.572;2023-04-03T04:34:27;4.57;;;1.67;;
65613;SDS011;52283;49.292;10.572;2023-04-03T04:36:53;4.03;;;2.00;;
65613;SDS011;52283;49.292;10.572;2023-04-03T04:39:20;5.05;;;2.38;;
65613;SDS011;52283;49.292;10.572;2023-04-03T04:41:48;4.30;;;1.85;;
65613;SDS011;52283;49.292;10.572;2023-04-03T04:44:14;3.10;;;2.00;;
65613;SDS011;52283;49.292;10.572;2023-04-03T04:46:41;10.30;;;5.05;;
65613;SDS011;52283;49.292;10.572;2023-04-03T04:49:07;7.78;;;3.88;;
65613;SDS011;52283;49.292;10.572;2023-04-03T04:51:34;4.85;;;2.63;;
65613;SDS011;52283;49.292;10.572;2023-04-03T04:54:00;3.47;;;2.30;;
65613;SDS011;52283;49.292;10.572;2023-04-03T04:56:27;5.07;;;2.40;;
65613;SDS011;52283;49.292;10.572;2023-04-03T04:58:55;7.55;;;3.00;;
65613;SDS011;52283;49.292;10.572;2023-04-03T05:01:21;3.30;;;2.25;;
65613;SDS011;52283;49.292;10.572;2023-04-03T05:03:47;3.70;;;2.10;;
65613;SDS011;52283;49.292;10.572;2023-04-03T05:06:14;8.98;;;2.38;;
65613;SDS011;52283;49.292;10.572;2023-04-03T05:08:41;2.47;;;1.83;;
65613;SDS011;52283;49.292;10.572;2023-04-03T05:11:07;5.93;;;2.28;;
65613;SDS011;52283;49.292;10.572;2023-04-03T05:13:34;3.88;;;2.55;;
65613;SDS011;52283;49.292;10.572;2023-04-03T05:16:01;9.10;;;2.15;;
65613;SDS011;52283;49.292;10.572;2023-04-03T05:18:28;4.65;;;2.33;;
65613;SDS011;52283;49.292;10.572;2023-04-03T05:20:55;3.75;;;2.70;;
65613;SDS011;52283;49.292;10.572;2023-04-03T05:23:22;4.88;;;2.58;;
65613;SDS011;52283;49.292;10.572;2023-04-03T05:25:49;5.53;;;2.17;;
65613;SDS011;52283;49.292;10.572;2023-04-03T05:28:15;3.45;;;2.70;;
65613;SDS011;52283;49.292;10.572;2023-04-03T05:30:42;6.45;;;2.22;;
65613;SDS011;52283;49.292;10.572;2023-04-03T05:33:09;4.20;;;2.13;;
65613;SDS011;52283;49.292;10.572;2023-04-03T05:35:36;4.50;;;2.90;;
65613;SDS011;52283;49.292;10.572;2023-04-03T05:38:04;7.47;;;2.85;;
65613;SDS011;52283;49.292;10.572;2023-04-03T05:40:30;5.50;;;2.78;;
65613;SDS011;52283;49.292;10.572;2023-04-03T05:42:57;4.38;;;2.90;;
65613;SDS011;52283;49.292;10.572;2023-04-03T05:45:23;9.32;;;2.63;;
65613;SDS011;52283;49.292;10.572;2023-04-03T05:47:50;4.53;;;3.17;;
65613;SDS011;52283;49.292;10.572;2023-04-03T05:50:18;3.83;;;2.70;;
65613;SDS011;52283;49.292;10.572;2023-04-03T05:52:45;5.00;;;2.70;;
65613;SDS011;52283;49.292;10.572;2023-04-03T05:55:14;5.60;;;2.78;;
65613;SDS011;52283;49.292;10.572;2023-04-03T05:57:41;4.60;;;2.58;;
65613;SDS011;52283;49.292;10.572;2023-04-03T06:00:08;2.83;;;2.53;;
65613;SDS011;52283;49.292;10.572;2023-04-03T06:02:37;7.13;;;2.53;;
65613;SDS011;52283;49.292;10.572;2023-04-03T06:05:04;5.88;;;2.53;;
65613;SDS011;52283;49.292;10.572;2023-04-03T06:07:33;3.38;;;2.30;;
65613;SDS011;52283;49.292;10.572;2023-04-03T06:10:00;4.57;;;2.15;;
65613;SDS011;52283;49.292;10.572;2023-04-03T06:12:27;5.47;;;2.08;;
65613;SDS011;52283;49.292;10.572;2023-04-03T06:14:54;6.13;;;2.38;;
65613;SDS011;52283;49.292;10.572;2023-04-03T06:17:22;2.85;;;1.98;;
65613;SDS011;52283;49.292;10.572;2023-04-03T06:19:48;7.80;;;2.90;;
65613;SDS011;52283;49.292;10.572;2023-04-03T06:22:15;1.55;;;1.42;;
65613;SDS011;52283;49.292;10.572;2023-04-03T06:24:43;5.15;;;2.20;;
65613;SDS011;52283;49.292;10.572;2023-04-03T06:27:09;5.57;;;2.30;;
65613;SDS011;52283;49.292;10.572;2023-04-03T06:29:37;5.60;;;1.92;;
65613;SDS011;52283;49.292;10.572;2023-04-03T06:32:04;5.60;;;1.98;;
65613;SDS011;52283;49.292;10.572;2023-04-03T06:34:31;3.15;;;1.50;;
65613;SDS011;52283;49.292;10.572;2023-04-03T06:36:57;7.72;;;2.20;;
65613;SDS011;52283;49.292;10.572;2023-04-03T06:39:24;8.00;;;1.95;;
65613;SDS011;52283;49.292;10.572;2023-04-03T06:41:51;6.90;;;1.95;;
65613;SDS011;52283;49.292;10.572;2023-04-03T06:44:18;3.22;;;1.52;;
65613;SDS011;52283;49.292;10.572;2023-04-03T06:46:45;8.02;;;1.52;;
65613;SDS011;52283;49.292;10.572;2023-04-03T06:49:12;5.45;;;2.17;;
65613;SDS011;52283;49.292;10.572;2023-04-03T06:51:38;3.70;;;1.55;;
65613;SDS011;52283;49.292;10.572;2023-04-03T06:54:05;4.68;;;1.60;;
65613;SDS011;52283;49.292;10.572;2023-04-03T06:56:33;3.08;;;1.58;;
65613;SDS011;52283;49.292;10.572;2023-04-03T06:59:01;6.15;;;2.65;;
65613;SDS011;52283;49.292;10.572;2023-04-03T07:01:28;4.75;;;1.63;;
65613;SDS011;52283;49.292;10.572;2023-04-03T07:03:55;4.70;;;2.20;;
65613;SDS011;52283;49.292;10.572;2023-04-03T07:06:22;2.58;;;2.10;;
65613;SDS011;52283;49.292;10.572;2023-04-03T07:08:51;3.67;;;1.60;;
65613;SDS011;52283;49.292;10.572;2023-04-03T07:11:18;4.07;;;2.05;;
65613;SDS011;52283;49.292;10.572;2023-04-03T07:13:45;4.72;;;1.75;;
65613;SDS011;52283;49.292;10.572;2023-04-03T07:16:13;4.32;;;1.90;;
65613;SDS011;52283;49.292;10.572;2023-04-03T07:18:39;2.83;;;2.00;;
65613;SDS011;52283;49.292;10.572;2023-04-03T07:21:06;5.25;;;1.80;;
65613;SDS011;52283;49.292;10.572;2023-04-03T07:23:33;4.50;;;1.60;;
65613;SDS011;52283;49.292;10.572;2023-04-03T07:25:59;6.28;;;1.70;;
65613;SDS011;52283;49.292;10.572;2023-04-03T07:28:26;1.60;;;1.20;;
65613;SDS011;52283;49.292;10.572;2023-04-03T07:30:54;2.00;;;1.67;;
65613;SDS011;52283;49.292;10.572;2023-04-03T07:33:29;2.88;;;1.75;;
65613;SDS011;52283;49.292;10.572;2023-04-03T07:35:56;4.22;;;1.73;;
65613;SDS011;52283;49.292;10.572;2023-04-03T07:38:23;2.63;;;1.80;;
65613;SDS011;52283;49.292;10.572;2023-04-03T07:40:50;6.15;;;1.75;;
65613;SDS011;52283;49.292;10.572;2023-04-03T07:43:18;4.28;;;1.67;;
65613;SDS011;52283;49.292;10.572;2023-04-03T07:45:46;3.60;;;1.70;;
65613;SDS011;52283;49.292;10.572;2023-04-03T07:48:14;7.60;;;2.22;;
65613;SDS011;52283;49.292;10.572;2023-04-03T07:50:43;2.70;;;1.50;;
65613;SDS011;52283;49.292;10.572;2023-04-03T07:53:10;4.75;;;2.08;;
65613;SDS011;52283;49.292;10.572;2023-04-03T07:55:37;2.10;;;1.85;;
65613;SDS011;52283;49.292;10.572;2023-04-03T07:58:08;8.77;;;2.15;;
65613;SDS011;52283;49.292;10.572;2023-04-03T08:00:34;6.32;;;2.80;;
65613;SDS011;52283;49.292;10.572;2023-04-03T08:03:01;1.95;;;1.40;;
65613;SDS011;52283;49.292;10.572;2023-04-03T08:05:27;1.65;;;1.55;;
65613;SDS011;52283;49.292;10.572;2023-04-03T08:07:55;3.63;;;1.77;;
65613;SDS011;52283;49.292;10.572;2023-04-03T08:10:22;3.35;;;1.80;;
65613;SDS011;52283;49.292;10.572;2023-04-03T08:12:48;2.13;;;1.17;;
65613;SDS011;52283;49.292;10.572;2023-04-03T08:15:16;4.35;;;1.77;;
65613;SDS011;52283;49.292;10.572;2023-04-03T08:17:42;2.33;;;1.65;;
65613;SDS011;52283;49.292;10.572;2023-04-03T08:20:09;1.50;;;1.40;;
65613;SDS011;52283;49.292;10.572;2023-04-03T08:22:36;3.35;;;1.48;;
65613;SDS011;52283;49.292;10.572;2023-04-03T08:25:04;2.33;;;1.85;;
65613;SDS011;52283;49.292;10.572;2023-04-03T08:27:31;2.88;;;1.70;;
65613;SDS011;52283;49.292;10.572;2023-04-03T08:29:58;3.45;;;1.60;;
65613;SDS011;52283;49.292;10.572;2023-04-03T08:32:25;3.70;;;1.50;;
65613;SDS011;52283;49.292;10.572;2023-04-03T08:34:52;4.88;;;1.58;;
65613;SDS011;52283;49.292;10.572;2023-04-03T08:37:18;1.38;;;1.27;;
65613;SDS011;52283;49.292;10.572;2023-04-03T08:39:45;2.13;;;1.50;;
65613;SDS011;52283;49.292;10.572;2023-04-03T08:42:15;2.47;;;1.48;;
65613;SDS011;52283;49.292;10.572;2023-04-03T08:44:54;3.80;;;1.42;;
65613;SDS011;52283;49.292;10.572;2023-04-03T08:47:28;3.20;;;1.52;;
65613;SDS011;52283;49.292;10.572;2023-04-03T08:50:04;3.03;;;1.80;;
65613;SDS011;52283;49.292;10.572;2023-04-03T08:52:34;5.25;;;1.50;;
65613;SDS011;52283;49.292;10.572;2023-04-03T08:55:05;4.55;;;1.83;;
65613;SDS011;52283;49.292;10.572;2023-04-03T08:57:35;4.05;;;1.50;;
65613;SDS011;52283;49.292;10.572;2023-04-03T09:00:10;11.02;;;2.08;;
65613;SDS011;52283;49.292;10.572;2023-04-03T09:02:45;4.13;;;1.88;;
65613;SDS011;52283;49.292;10.572;2023-04-03T09:05:14;5.13;;;2.08;;
65613;SDS011;52283;49.292;10.572;2023-04-03T09:07:43;4.32;;;1.70;;
65613;SDS011;52283;49.292;10.572;2023-04-03T09:10:12;4.25;;;1.60;;
65613;SDS011;52283;49.292;10.572;2023-04-03T09:12:53;1.85;;;1.27;;
65613;SDS011;52283;49.292;10.572;2023-04-03T09:15:26;2.60;;;1.70;;
65613;SDS011;52283;49.292;10.572;2023-04-03T09:17:55;6.25;;;3.03;;
65613;SDS011;52283;49.292;10.572;2023-04-03T09:20:31;4.45;;;2.42;;
65613;SDS011;52283;49.292;10.572;2023-04-03T09:23:16;3.80;;;1.83;;
65613;SDS011;52283;49.292;10.572;2023-04-03T09:25:49;2.50;;;1.83;;
65613;SDS011;52283;49.292;10.572;2023-04-03T09:28:20;3.40;;;1.77;;
65613;SDS011;52283;49.292;10.572;2023-04-03T09:30:47;2.38;;;1.27;;
65613;SDS011;52283;49.292;10.572;2023-04-03T09:33:13;3.20;;;1.60;;
65613;SDS011;52283;49.292;10.572;2023-04-03T09:35:41;4.93;;;1.70;;
65613;SDS011;52283;49.292;10.572;2023-04-03T09:38:17;5.35;;;1.60;;
65613;SDS011;52283;49.292;10.572;2023-04-03T09:40:46;10.10;;;5.43;;
65613;SDS011;52283;49.292;10.572;2023-04-03T09:43:29;3.25;;;1.80;;
65613;SDS011;52283;49.292;10.572;2023-04-03T09:45:56;5.82;;;1.70;;
65613;SDS011;52283;49.292;10.572;2023-04-03T09:48:49;2.47;;;1.40;;
65613;SDS011;52283;49.292;10.572;2023-04-03T09:51:17;2.33;;;1.20;;
65613;SDS011;52283;49.292;10.572;2023-04-03T09:53:44;1.85;;;1.10;;
65613;SDS011;52283;49.292;10.572;2023-04-03T09:56:18;3.45;;;1.50;;
65613;SDS011;52283;49.292;10.572;2023-04-03T09:58:49;3.60;;;1.48;;
65613;SDS011;52283;49.292;10.572;2023-04-03T10:01:22;3.42;;;1.00;;
65613;SDS011;52283;49.292;10.572;2023-04-03T10:04:02;6.13;;;2.65;;
65613;SDS011;52283;49.292;10.572;2023-04-03T10:06:34;3.53;;;1.35;;
65613;SDS011;52283;49.292;10.572;2023-04-03T10:09:06;1.42;;;0.90;;
65613;SDS011;52283;49.292;10.572;2023-04-03T10:11:44;3.35;;;1.20;;
65613;SDS011;52283;49.292;10.572;2023-04-03T10:14:25;2.10;;;1.88;;
65613;SDS011;52283;49.292;10.572;2023-04-03T10:16:53;1.98;;;1.20;;
65613;SDS011;52283;49.292;10.572;2023-04-03T10:19:33;2.42;;;2.17;;
65613;SDS011;52283;49.292;10.572;2023-04-03T10:22:03;4.00;;;2.92;;
65613;SDS011;52283;49.292;10.572;2023-04-03T10:24:41;0.68;;;0.63;;
65613;SDS011;52283;49.292;10.572;2023-04-03T10:27:16;1.08;;;0.65;;
65613;SDS011;52283;49.292;10.572;2023-04-03T10:29:48;1.20;;;0.50;;
65613;SDS011;52283;49.292;10.572;2023-04-03T10:32:28;1.00;;;0.70;;
65613;SDS011;52283;49.292;10.572;2023-04-03T10:35:13;3.13;;;1.17;;
65613;SDS011;52283;49.292;10.572;2023-04-03T10:37:50;4.93;;;1.38;;
65613;SDS011;52283;49.292;10.572;2023-04-03T10:40:28;1.50;;;1.00;;
65613;SDS011;52283;49.292;10.572;2023-04-03T10:43:00;2.42;;;1.00;;
65613;SDS011;52283;49.292;10.572;2023-04-03T10:45:40;3.35;;;0.80;;
65613;SDS011;52283;49.292;10.572;2023-04-03T10:48:18;4.72;;;0.98;;
65613;SDS011;52283;49.292;10.572;2023-04-03T10:50:56;1.58;;;0.88;;
65613;SDS011;52283;49.292;10.572;2023-04-03T10:53:28;1.23;;;1.00;;
65613;SDS011;52283;49.292;10.572;2023-04-03T10:56:00;2.10;;;1.05;;
65613;SDS011;52283;49.292;10.572;2023-04-03T10:58:34;1.48;;;0.90;;
65613;SDS011;52283;49.292;10.572;2023-04-03T11:01:07;2.17;;;1.02;;
65613;SDS011;52283;49.292;10.572;2023-04-03T11:03:38;2.97;;;1.00;;
65613;SDS011;52283;49.292;10.572;2023-04-03T11:08:36;2.80;;;1.17;;
65613;SDS011;52283;49.292;10.572;2023-04-03T11:11:09;2.72;;;0.93;;
65613;SDS011;52283;49.292;10.572;2023-04-03T11:13:40;3.20;;;0.85;;
65613;SDS011;52283;49.292;10.572;2023-04-03T11:16:12;2.05;;;0.88;;
65613;SDS011;52283;49.292;10.572;2023-04-03T11:18:43;5.22;;;1.23;;
65613;SDS011;52283;49.292;10.572;2023-04-03T11:21:13;3.00;;;0.98;;
65613;SDS011;52283;49.292;10.572;2023-04-03T11:23:46;1.20;;;0.77;;
65613;SDS011;52283;49.292;10.572;2023-04-03T11:26:14;3.13;;;1.13;;
65613;SDS011;52283;49.292;10.572;2023-04-03T11:28:42;1.58;;;0.98;;
65613;SDS011;52283;49.292;10.572;2023-04-03T11:31:15;1.75;;;1.00;;
65613;SDS011;52283;49.292;10.572;2023-04-03T11:33:57;1.80;;;0.80;;
65613;SDS011;52283;49.292;10.572;2023-04-03T11:36:31;3.85;;;1.00;;
65613;SDS011;52283;49.292;10.572;2023-04-03T11:39:07;6.40;;;1.92;;
65613;SDS011;52283;49.292;10.572;2023-04-03T11:41:43;3.22;;;1.42;;
65613;SDS011;52283;49.292;10.572;2023-04-03T11:44:25;2.15;;;1.00;;
65613;SDS011;52283;49.292;10.572;2023-04-03T11:46:58;4.35;;;1.02;;
65613;SDS011;52283;49.292;10.572;2023-04-03T11:58:13;2.05;;;1.45;;
65613;SDS011;52283;49.292;10.572;2023-04-03T12:00:51;1.77;;;1.08;;
65613;SDS011;52283;49.292;10.572;2023-04-03T12:09:24;1.40;;;0.80;;
65613;SDS011;52283;49.292;10.572;2023-04-03T12:12:29;1.13;;;0.90;;
65613;SDS011;52283;49.292;10.572;2023-04-03T12:15:11;1.13;;;1.02;;
65613;SDS011;52283;49.292;10.572;2023-04-03T12:17:44;1.17;;;1.15;;
65613;SDS011;52283;49.292;10.572;2023-04-03T12:23:27;5.82;;;1.25;;
65613;SDS011;52283;49.292;10.572;2023-04-03T12:25:59;1.60;;;1.20;;
65613;SDS011;52283;49.292;10.572;2023-04-03T12:28:31;2.38;;;1.25;;
65613;SDS011;52283;49.292;10.572;2023-04-03T12:31:04;2.65;;;1.00;;
65613;SDS011;52283;49.292;10.572;2023-04-03T12:33:33;2.75;;;0.93;;
65613;SDS011;52283;49.292;10.572;2023-04-03T12:36:15;1.88;;;1.08;;
65613;SDS011;52283;49.292;10.572;2023-04-03T12:39:03;3.13;;;1.05;;
65613;SDS011;52283;49.292;10.572;2023-04-03T12:41:42;1.45;;;1.05;;
65613;SDS011;52283;49.292;10.572;2023-04-03T12:47:07;0.95;;;0.93;;
65613;SDS011;52283;49.292;10.572;2023-04-03T12:49:47;1.48;;;0.75;;
65613;SDS011;52283;49.292;10.572;2023-04-03T12:52:17;1.27;;;1.08;;
65613;SDS011;52283;49.292;10.572;2023-04-03T12:54:50;2.10;;;1.17;;
65613;SDS011;52283;49.292;10.572;2023-04-03T12:57:18;3.88;;;1.27;;
65613;SDS011;52283;49.292;10.572;2023-04-03T12:59:46;5.22;;;1.60;;
65613;SDS011;52283;49.292;10.572;2023-04-03T13:02:21;3.15;;;1.08;;
65613;SDS011;52283;49.292;10.572;2023-04-03T13:04:49;3.00;;;1.75;;
65613;SDS011;52283;49.292;10.572;2023-04-03T13:07:20;4.13;;;1.58;;
65613;SDS011;52283;49.292;10.572;2023-04-03T13:10:03;5.40;;;1.60;;
65613;SDS011;52283;49.292;10.572;2023-04-03T13:12:45;5.35;;;2.45;;
65613;SDS011;52283;49.292;10.572;2023-04-03T13:15:14;2.20;;;1.38;;
65613;SDS011;52283;49.292;10.572;2023-04-03T13:17:43;1.55;;;1.17;;
65613;SDS011;52283;49.292;10.572;2023-04-03T13:20:12;1.45;;;1.00;;
65613;SDS011;52283;49.292;10.572;2023-04-03T13:22:42;1.95;;;1.20;;
65613;SDS011;52283;49.292;10.572;2023-04-03T13:25:15;2.90;;;1.30;;
65613;SDS011;52283;49.292;10.572;2023-04-03T13:27:45;3.85;;;1.52;;
65613;SDS011;52283;49.292;10.572;2023-04-03T13:30:28;2.40;;;0.98;;
65613;SDS011;52283;49.292;10.572;2023-04-03T13:32:58;1.42;;;0.93;;
65613;SDS011;52283;49.292;10.572;2023-04-03T13:35:28;2.15;;;1.00;;
65613;SDS011;52283;49.292;10.572;2023-04-03T13:38:01;1.20;;;1.08;;
65613;SDS011;52283;49.292;10.572;2023-04-03T13:40:32;3.05;;;1.05;;
65613;SDS011;52283;49.292;10.572;2023-04-03T13:42:59;4.65;;;1.25;;
65613;SDS011;52283;49.292;10.572;2023-04-03T13:45:28;2.80;;;1.20;;
65613;SDS011;52283;49.292;10.572;2023-04-03T13:48:08;2.25;;;1.05;;
65613;SDS011;52283;49.292;10.572;2023-04-03T13:50:50;2.35;;;0.82;;
65613;SDS011;52283;49.292;10.572;2023-04-03T13:53:25;1.50;;;0.85;;
65613;SDS011;52283;49.292;10.572;2023-04-03T13:56:06;3.92;;;1.10;;
65613;SDS011;52283;49.292;10.572;2023-04-03T13:58:36;3.33;;;2.08;;
65613;SDS011;52283;49.292;10.572;2023-04-03T14:01:08;2.55;;;1.30;;
65613;SDS011;52283;49.292;10.572;2023-04-03T14:03:39;1.73;;;0.95;;
65613;SDS011;52283;49.292;10.572;2023-04-03T14:06:10;3.80;;;1.27;;
65613;SDS011;52283;49.292;10.572;2023-04-03T14:08:37;2.72;;;1.15;;
65613;SDS011;52283;49.292;10.572;2023-04-03T14:11:05;2.90;;;1.27;;
65613;SDS011;52283;49.292;10.572;2023-04-03T14:13:32;1.30;;;1.00;;
65613;SDS011;52283;49.292;10.572;2023-04-03T14:15:59;2.05;;;1.52;;
65613;SDS011;52283;49.292;10.572;2023-04-03T14:18:26;3.92;;;1.05;;
65613;SDS011;52283;49.292;10.572;2023-04-03T14:20:53;1.40;;;1.30;;
65613;SDS011;52283;49.292;10.572;2023-04-03T14:23:19;3.28;;;1.20;;
65613;SDS011;52283;49.292;10.572;2023-04-03T14:25:46;2.97;;;1.23;;
65613;SDS011;52283;49.292;10.572;2023-04-03T14:28:16;3.13;;;0.88;;
65613;SDS011;52283;49.292;10.572;2023-04-03T14:30:44;2.17;;;1.85;;
65613;SDS011;52283;49.292;10.572;2023-04-03T14:33:12;1.95;;;0.80;;
65613;SDS011;52283;49.292;10.572;2023-04-03T14:35:40;1.88;;;0.80;;
65613;SDS011;52283;49.292;10.572;2023-04-03T14:38:11;1.50;;;1.20;;
65613;SDS011;52283;49.292;10.572;2023-04-03T14:40:46;1.90;;;0.90;;
65613;SDS011;52283;49.292;10.572;2023-04-03T14:43:12;1.20;;;0.90;;
65613;SDS011;52283;49.292;10.572;2023-04-03T14:45:41;2.70;;;1.02;;
65613;SDS011;52283;49.292;10.572;2023-04-03T14:48:09;1.33;;;1.17;;
65613;SDS011;52283;49.292;10.572;2023-04-03T14:50:44;2.83;;;1.10;;
65613;SDS011;52283;49.292;10.572;2023-04-03T14:53:11;1.77;;;1.02;;
65613;SDS011;52283;49.292;10.572;2023-04-03T14:55:39;2.50;;;1.25;;
65613;SDS011;52283;49.292;10.572;2023-04-03T14:58:08;3.05;;;1.02;;
65613;SDS011;52283;49.292;10.572;2023-04-03T15:00:37;2.92;;;1.27;;
65613;SDS011;52283;49.292;10.572;2023-04-03T15:03:05;2.42;;;1.13;;
65613;SDS011;52283;49.292;10.572;2023-04-03T15:05:32;3.33;;;1.02;;
65613;SDS011;52283;49.292;10.572;2023-04-03T15:07:58;2.13;;;0.88;;
65613;SDS011;52283;49.292;10.572;2023-04-03T15:10:26;1.63;;;0.80;;
65613;SDS011;52283;49.292;10.572;2023-04-03T15:12:54;0.90;;;0.65;;
65613;SDS011;52283;49.292;10.572;2023-04-03T15:15:22;0.63;;;0.60;;